Time;durP1;ratioP1;P1;durP2;ratioP2;P2;SDS_P1;SDS_P2;PMS_P1;PMS_P2;Temp;Humidity;BMP_temperature;BMP_pressure;BME280_temperature;BME280_humidity;BME280_pressure;Samples;Min_cycle;Max_cycle;Signal;HPM_P1;HPM_P2
2022/10/07 00:00:50;;;;;;;5.50;2.60;;;11.40;99.90;;;;;;5107689;28;20449;-50
2022/10/07 00:03:18;;;;;;;2.43;2.20;;;11.40;99.90;;;;;;5120734;28;20444;-50
2022/10/07 00:05:45;;;;;;;5.50;2.63;;;11.40;99.90;;;;;;5106600;28;20473;-48
2022/10/07 00:08:12;;;;;;;3.30;2.40;;;11.50;99.90;;;;;;5119682;28;20503;-50
2022/10/07 00:10:40;;;;;;;5.63;2.57;;;11.40;99.90;;;;;;5118272;28;20810;-50
2022/10/07 00:13:08;;;;;;;3.00;2.20;;;11.40;99.90;;;;;;5101185;28;20461;-47
2022/10/07 00:15:36;;;;;;;4.70;2.37;;;11.30;99.90;;;;;;5101120;28;20456;-46
2022/10/07 00:18:03;;;;;;;4.10;2.30;;;11.40;99.90;;;;;;5101394;28;20488;-51
2022/10/07 00:20:30;;;;;;;3.33;2.50;;;11.30;99.90;;;;;;5110192;28;20444;-48
2022/10/07 00:22:58;;;;;;;3.37;2.03;;;11.60;99.90;;;;;;5099899;28;20452;-43
2022/10/07 00:25:25;;;;;;;4.50;2.67;;;11.30;99.90;;;;;;5099960;28;20548;-46
2022/10/07 00:27:52;;;;;;;3.27;2.80;;;11.30;99.90;;;;;;5116358;28;20461;-50
2022/10/07 00:30:18;;;;;;;5.07;2.70;;;11.30;99.90;;;;;;5103677;28;20460;-46
2022/10/07 00:32:46;;;;;;;3.27;2.63;;;11.30;99.90;;;;;;5099866;28;20460;-43
2022/10/07 00:35:13;;;;;;;8.80;2.80;;;11.30;99.90;;;;;;5105268;28;20440;-45
2022/10/07 00:37:41;;;;;;;11.90;3.57;;;11.30;99.90;;;;;;5112994;28;20901;-44
2022/10/07 00:40:11;;;;;;;4.13;2.77;;;11.20;99.90;;;;;;5100891;28;20473;-44
2022/10/07 00:42:39;;;;;;;6.23;2.53;;;11.20;99.90;;;;;;5119635;28;20518;-48
2022/10/07 00:45:12;;;;;;;4.27;2.57;;;11.10;99.90;;;;;;5113754;28;20469;-46
2022/10/07 00:47:40;;;;;;;5.70;2.93;;;11.10;99.90;;;;;;5119173;28;20433;-47
2022/10/07 00:50:11;;;;;;;5.37;2.87;;;11.00;99.90;;;;;;5110533;28;20549;-46
2022/10/07 00:52:44;;;;;;;7.27;3.20;;;11.00;99.90;;;;;;5100829;28;20899;-43
2022/10/07 00:55:14;;;;;;;3.00;2.50;;;10.90;99.90;;;;;;5118961;28;20527;-44
2022/10/07 00:57:42;;;;;;;6.80;3.17;;;10.90;99.90;;;;;;5120600;28;20480;-51
2022/10/07 01:00:10;;;;;;;3.53;2.47;;;10.80;99.90;;;;;;5107264;28;20450;-50
2022/10/07 01:02:38;;;;;;;6.50;2.40;;;10.80;99.90;;;;;;5117599;28;20440;-49
2022/10/07 01:05:09;;;;;;;8.13;2.97;;;10.80;99.90;;;;;;5120336;28;20452;-48
2022/10/07 01:07:38;;;;;;;4.10;2.60;;;10.80;99.90;;;;;;5120826;28;20429;-44
2022/10/07 01:10:06;;;;;;;4.00;2.70;;;10.80;99.90;;;;;;5121123;28;20487;-51
2022/10/07 01:12:48;;;;;;;6.03;2.77;;;10.80;99.90;;;;;;5119065;28;20547;-47
2022/10/07 01:15:23;;;;;;;11.03;3.10;;;10.80;99.90;;;;;;5099599;28;20960;-50
2022/10/07 01:17:54;;;;;;;4.30;2.23;;;10.80;99.90;;;;;;5101266;28;20487;-46
2022/10/07 01:20:30;;;;;;;5.30;3.07;;;10.70;99.90;;;;;;5105406;28;20451;-49
2022/10/07 01:23:19;;;;;;;3.00;2.53;;;10.70;99.90;;;;;;5099081;28;20497;-51
2022/10/07 01:26:10;;;;;;;6.77;3.00;;;10.70;99.90;;;;;;5105759;28;20439;-48
2022/10/07 01:28:40;;;;;;;4.97;2.80;;;10.60;99.90;;;;;;5100551;28;20951;-49
2022/10/07 01:31:12;;;;;;;4.33;2.27;;;10.50;99.90;;;;;;5099246;28;20444;-43
2022/10/07 01:33:42;;;;;;;4.03;2.60;;;10.50;99.90;;;;;;5116380;28;20441;-48
2022/10/07 01:36:14;;;;;;;4.60;2.17;;;10.50;99.90;;;;;;5119720;28;20503;-43
2022/10/07 01:38:46;;;;;;;3.33;2.67;;;10.50;99.90;;;;;;5101119;28;20461;-48
2022/10/07 01:41:15;;;;;;;5.37;2.80;;;10.40;99.90;;;;;;5105717;28;20448;-47
2022/10/07 01:43:45;;;;;;;8.80;2.87;;;10.40;99.90;;;;;;5111241;28;20464;-48
2022/10/07 01:46:18;;;;;;;6.63;2.90;;;10.40;99.90;;;;;;5107038;28;20456;-44
2022/10/07 01:48:46;;;;;;;3.03;2.73;;;10.40;99.90;;;;;;5120470;28;20439;-45
2022/10/07 01:51:13;;;;;;;3.53;2.40;;;10.30;99.90;;;;;;5104443;28;20457;-51
2022/10/07 01:53:50;;;;;;;4.30;3.03;;;10.30;99.90;;;;;;5117240;28;20481;-47
2022/10/07 01:56:35;;;;;;;3.90;2.50;;;10.30;99.90;;;;;;5100399;28;20489;-45
2022/10/07 01:59:28;;;;;;;3.97;2.90;;;10.30;99.90;;;;;;5102923;28;20828;-50
2022/10/07 02:02:02;;;;;;;8.10;2.80;;;10.20;99.90;;;;;;5104062;28;20441;-49
2022/10/07 02:04:43;;;;;;;4.93;3.47;;;10.20;99.90;;;;;;5109262;28;21079;-45
2022/10/07 02:07:23;;;;;;;3.10;2.80;;;10.20;99.90;;;;;;5099620;28;20465;-52
2022/10/07 02:09:56;;;;;;;3.13;2.83;;;10.20;99.90;;;;;;5100247;28;20453;-52
2022/10/07 02:12:31;;;;;;;5.47;3.03;;;10.80;99.90;;;;;;5111618;28;20426;-45
2022/10/07 02:15:05;;;;;;;3.50;2.80;;;10.20;99.90;;;;;;5099702;28;20435;-47
2022/10/07 02:17:36;;;;;;;6.30;3.20;;;10.20;99.90;;;;;;5100232;28;20473;-47
2022/10/07 02:20:05;;;;;;;4.47;3.20;;;10.20;99.90;;;;;;5103300;28;20473;-46
2022/10/07 02:22:35;;;;;;;6.23;3.40;;;10.20;99.90;;;;;;5126282;28;20772;-45
2022/10/07 02:25:02;;;;;;;12.90;3.27;;;10.10;99.90;;;;;;5134195;28;20429;-46
2022/10/07 02:27:34;;;;;;;5.23;2.87;;;10.10;99.90;;;;;;5117145;28;20437;-52
2022/10/07 02:30:09;;;;;;;5.27;3.20;;;10.10;99.90;;;;;;5111468;28;20755;-45
2022/10/07 02:32:38;;;;;;;2.83;2.50;;;10.10;99.90;;;;;;5100364;28;20537;-47
2022/10/07 02:35:15;;;;;;;8.53;2.93;;;10.20;99.90;;;;;;5115319;28;20457;-51
2022/10/07 02:37:46;;;;;;;8.63;3.33;;;10.20;99.90;;;;;;5102726;28;20518;-46
2022/10/07 02:40:15;;;;;;;3.60;2.13;;;10.20;99.90;;;;;;5110352;28;20771;-46
2022/10/07 02:42:51;;;;;;;4.40;2.37;;;10.20;99.90;;;;;;5121293;28;20763;-43
2022/10/07 02:45:23;;;;;;;7.97;3.10;;;10.20;99.90;;;;;;5119630;28;20444;-48
2022/10/07 02:47:53;;;;;;;3.47;2.37;;;10.20;99.90;;;;;;5122775;28;20772;-49
2022/10/07 02:50:26;;;;;;;3.73;2.50;;;10.10;99.90;;;;;;5119631;28;20465;-45
2022/10/07 02:52:56;;;;;;;3.17;1.90;;;10.10;99.90;;;;;;5119264;28;20430;-44
2022/10/07 02:55:25;;;;;;;3.63;2.17;;;10.10;99.90;;;;;;5101442;28;20445;-48
2022/10/07 02:57:56;;;;;;;3.10;2.23;;;10.00;99.90;;;;;;5114715;28;20479;-47
2022/10/07 03:00:24;;;;;;;3.73;2.40;;;10.00;99.90;;;;;;5122879;28;20424;-47
2022/10/07 03:02:53;;;;;;;3.23;2.67;;;10.00;99.90;;;;;;5107571;28;20477;-51
2022/10/07 03:05:21;;;;;;;4.57;2.90;;;9.90;99.90;;;;;;5102062;28;20512;-45
2022/10/07 03:07:50;;;;;;;4.10;2.50;;;9.90;99.90;;;;;;5100611;28;20487;-52
2022/10/07 03:10:17;;;;;;;7.07;3.10;;;9.90;99.90;;;;;;5107206;28;20440;-46
2022/10/07 03:12:44;;;;;;;4.60;2.63;;;10.00;99.90;;;;;;5110791;28;20445;-47
2022/10/07 03:15:11;;;;;;;3.27;2.40;;;9.90;99.90;;;;;;5116474;28;20460;-48
2022/10/07 03:17:42;;;;;;;8.13;4.07;;;9.90;99.90;;;;;;5111261;28;20467;-46
2022/10/07 03:20:10;;;;;;;5.20;3.20;;;9.90;99.90;;;;;;5106494;28;20437;-48
2022/10/07 03:22:37;;;;;;;5.27;2.73;;;9.90;99.90;;;;;;5105904;28;20511;-46
2022/10/07 03:25:05;;;;;;;2.90;2.30;;;9.90;99.90;;;;;;5106795;28;20433;-46
2022/10/07 03:27:31;;;;;;;3.83;2.80;;;9.90;99.90;;;;;;5106423;28;20445;-45
2022/10/07 03:29:58;;;;;;;12.70;2.80;;;10.00;99.90;;;;;;5106277;28;20456;-49
2022/10/07 03:32:26;;;;;;;3.27;1.93;;;10.00;99.90;;;;;;5105378;28;20453;-49
2022/10/07 03:34:57;;;;;;;5.73;2.27;;;10.00;99.90;;;;;;5104152;28;20491;-52
2022/10/07 03:37:24;;;;;;;3.40;2.47;;;10.00;99.90;;;;;;5102406;28;20547;-49
2022/10/07 03:39:52;;;;;;;5.80;2.30;;;9.90;99.90;;;;;;5102737;28;20457;-46
2022/10/07 03:42:19;;;;;;;5.40;4.70;;;10.00;99.90;;;;;;5119344;28;20479;-49
2022/10/07 03:44:47;;;;;;;4.60;2.63;;;10.00;99.90;;;;;;5102605;28;20496;-46
2022/10/07 03:47:15;;;;;;;3.17;2.73;;;10.00;99.90;;;;;;5121356;28;20456;-53
2022/10/07 03:49:42;;;;;;;7.90;2.93;;;9.90;99.90;;;;;;5108168;28;20438;-50
2022/10/07 03:52:10;;;;;;;3.30;2.73;;;9.90;99.90;;;;;;5107831;28;20445;-47
2022/10/07 03:54:37;;;;;;;8.10;3.03;;;9.90;99.90;;;;;;5122462;28;20479;-47
2022/10/07 03:57:48;;;;;;;5.77;2.70;;;9.90;99.90;;;;;;5108687;28;20456;-51
2022/10/07 03:59:52;;;;;;;7.13;3.20;;;9.80;99.90;;;;;;5102403;28;20476;-50
2022/10/07 04:02:20;;;;;;;4.13;2.50;;;9.80;99.90;;;;;;5120686;28;20535;-47
2022/10/07 04:04:46;;;;;;;3.77;2.30;;;9.80;99.90;;;;;;5122577;28;20453;-47
2022/10/07 04:07:16;;;;;;;5.27;3.40;;;9.80;99.90;;;;;;5122271;28;20927;-46
2022/10/07 04:09:43;;;;;;;4.83;2.80;;;9.70;99.90;;;;;;5108876;28;20433;-50
2022/10/07 04:12:12;;;;;;;13.13;2.50;;;9.70;99.90;;;;;;5117637;28;20448;-47
2022/10/07 04:14:38;;;;;;;5.30;3.37;;;9.70;99.90;;;;;;5117212;28;20472;-49
2022/10/07 04:17:05;;;;;;;3.97;2.63;;;9.70;99.90;;;;;;5107545;28;20448;-48
2022/10/07 04:19:32;;;;;;;7.50;2.97;;;9.70;99.90;;;;;;5121224;28;20469;-50
2022/10/07 04:21:59;;;;;;;5.13;2.73;;;9.60;99.90;;;;;;5122607;28;20466;-47
2022/10/07 04:24:27;;;;;;;6.37;2.47;;;9.60;99.90;;;;;;5122269;28;20451;-50
2022/10/07 04:26:54;;;;;;;8.93;2.60;;;9.60;99.90;;;;;;5117638;28;20464;-46
2022/10/07 04:29:20;;;;;;;4.97;2.87;;;9.50;99.90;;;;;;5119675;28;20437;-52
2022/10/07 04:31:47;;;;;;;3.93;3.10;;;9.60;99.90;;;;;;5121033;28;20459;-51
2022/10/07 04:34:14;;;;;;;3.67;3.07;;;9.50;99.90;;;;;;5121270;28;20558;-50
2022/10/07 04:36:42;;;;;;;4.33;3.17;;;9.50;99.90;;;;;;5113616;28;20456;-52
2022/10/07 04:39:09;;;;;;;6.07;3.03;;;9.50;99.90;;;;;;5113377;28;20472;-50
2022/10/07 04:41:37;;;;;;;4.83;2.87;;;9.40;99.90;;;;;;5105757;28;20456;-47
2022/10/07 04:44:04;;;;;;;4.50;3.30;;;9.40;99.90;;;;;;5120562;28;20441;-52
2022/10/07 04:46:31;;;;;;;3.07;2.40;;;9.50;99.90;;;;;;5121400;28;20499;-48
2022/10/07 04:48:58;;;;;;;4.40;2.67;;;9.40;99.90;;;;;;5122473;28;20456;-50
2022/10/07 04:51:25;;;;;;;3.80;2.97;;;9.40;99.90;;;;;;5120597;28;20453;-43
2022/10/07 04:53:52;;;;;;;4.87;3.23;;;9.40;99.90;;;;;;5121719;28;20431;-47
2022/10/07 04:56:22;;;;;;;5.47;2.70;;;9.40;99.90;;;;;;5103034;28;20495;-46
2022/10/07 04:58:50;;;;;;;7.63;2.97;;;9.40;99.90;;;;;;5102406;28;20538;-44
2022/10/07 05:01:16;;;;;;;5.60;2.97;;;9.40;99.90;;;;;;5116264;28;20447;-47
2022/10/07 05:03:43;;;;;;;3.00;2.40;;;9.50;99.90;;;;;;5119842;28;20445;-50
2022/10/07 05:06:10;;;;;;;9.60;3.20;;;9.40;99.90;;;;;;5104146;28;20438;-48
2022/10/07 05:08:37;;;;;;;6.73;2.97;;;9.40;99.90;;;;;;5120665;28;20457;-45
2022/10/07 05:11:04;;;;;;;5.80;3.43;;;9.40;99.90;;;;;;5118518;28;20468;-43
2022/10/07 05:13:33;;;;;;;6.00;3.20;;;9.40;99.90;;;;;;5122500;28;20444;-46
2022/10/07 05:16:02;;;;;;;9.43;2.60;;;9.40;99.90;;;;;;5115841;28;20964;-48
2022/10/07 05:18:30;;;;;;;7.30;2.97;;;9.40;99.90;;;;;;5103158;28;20815;-47
2022/10/07 05:20:57;;;;;;;4.83;3.30;;;9.40;99.90;;;;;;5103474;28;20447;-45
2022/10/07 05:23:25;;;;;;;4.23;2.83;;;9.30;99.90;;;;;;5103470;28;20436;-48
2022/10/07 05:25:58;;;;;;;3.67;2.60;;;9.30;99.90;;;;;;5103260;28;20449;-48
2022/10/07 05:28:25;;;;;;;16.50;3.50;;;9.20;99.90;;;;;;5110766;28;20909;-46
2022/10/07 05:31:02;;;;;;;6.50;3.07;;;9.20;99.90;;;;;;5122572;28;20502;-47
2022/10/07 05:33:30;;;;;;;4.37;2.87;;;9.20;99.90;;;;;;5122978;28;20468;-45
2022/10/07 05:35:57;;;;;;;10.07;3.13;;;9.10;99.90;;;;;;5122615;28;20539;-49
2022/10/07 05:38:24;;;;;;;9.43;2.70;;;9.20;99.90;;;;;;5121377;28;20484;-48
2022/10/07 05:40:57;;;;;;;3.73;3.33;;;9.20;99.90;;;;;;5121896;28;20540;-44
2022/10/07 05:43:25;;;;;;;4.73;3.20;;;9.20;99.90;;;;;;5120976;28;20441;-44
2022/10/07 05:45:59;;;;;;;5.80;3.20;;;9.20;99.90;;;;;;5119436;28;20457;-50
2022/10/07 05:48:28;;;;;;;4.77;3.20;;;9.20;99.90;;;;;;5121012;28;20436;-49
2022/10/07 05:50:56;;;;;;;13.47;3.80;;;9.10;99.90;;;;;;5119511;28;20501;-48
2022/10/07 05:53:22;;;;;;;5.10;3.77;;;9.20;99.90;;;;;;5121087;28;20441;-47
2022/10/07 05:55:50;;;;;;;8.03;3.53;;;9.20;99.90;;;;;;5120713;28;20440;-50
2022/10/07 05:58:17;;;;;;;6.27;3.40;;;9.20;99.90;;;;;;5121298;28;20437;-49
2022/10/07 06:00:51;;;;;;;6.10;3.30;;;9.20;99.90;;;;;;5104804;28;20465;-51
2022/10/07 06:03:20;;;;;;;5.03;3.20;;;9.20;99.90;;;;;;5121226;28;20567;-50
2022/10/07 06:05:50;;;;;;;6.53;3.40;;;9.20;99.90;;;;;;5121057;28;20448;-50
2022/10/07 06:08:18;;;;;;;5.40;3.60;;;9.30;99.90;;;;;;5121899;28;20837;-47
2022/10/07 06:13:29;;;;;;;7.10;3.70;;;9.40;99.90;;;;;;5102402;28;20400;-44
2022/10/07 06:16:01;;;;;;;8.97;3.47;;;9.40;99.90;;;;;;5113855;28;20440;-45
2022/10/07 06:18:27;;;;;;;7.83;4.43;;;9.40;99.90;;;;;;5109368;28;20437;-47
2022/10/07 06:20:57;;;;;;;6.10;4.03;;;9.40;99.90;;;;;;5106701;28;20486;-52
2022/10/07 06:23:24;;;;;;;11.97;3.90;;;9.50;99.90;;;;;;5120860;28;20616;-51
2022/10/07 06:25:55;;;;;;;4.93;3.60;;;9.50;99.90;;;;;;5116006;28;20445;-49
2022/10/07 06:28:22;;;;;;;7.80;3.73;;;9.50;99.90;;;;;;5116921;28;20440;-48
2022/10/07 06:30:51;;;;;;;10.67;4.53;;;9.60;99.90;;;;;;5101568;28;20452;-47
2022/10/07 06:33:19;;;;;;;11.47;4.60;;;9.60;99.90;;;;;;5103552;28;20465;-48
2022/10/07 06:35:46;;;;;;;11.23;6.00;;;9.70;99.90;;;;;;5104757;28;20547;-51
2022/10/07 06:38:15;;;;;;;7.33;4.73;;;9.70;99.90;;;;;;5119540;28;20445;-49
2022/10/07 06:40:42;;;;;;;5.57;4.37;;;9.70;99.90;;;;;;5119544;28;20472;-49
2022/10/07 06:43:09;;;;;;;6.53;4.83;;;9.80;99.90;;;;;;5111846;28;20445;-51
2022/10/07 06:45:35;;;;;;;6.60;4.40;;;9.80;99.90;;;;;;5099033;28;20481;-54
2022/10/07 06:48:02;;;;;;;6.63;5.07;;;9.80;99.90;;;;;;5101418;28;20520;-47
2022/10/07 06:50:29;;;;;;;30.40;12.93;;;9.80;99.90;;;;;;5121806;28;20460;-47
2022/10/07 06:52:56;;;;;;;23.57;10.87;;;9.80;99.90;;;;;;5117358;28;20452;-51
2022/10/07 06:55:25;;;;;;;31.97;16.20;;;9.80;99.90;;;;;;5107727;28;20465;-47
2022/10/07 06:57:52;;;;;;;24.37;14.07;;;9.80;99.90;;;;;;5112956;28;20746;-49
2022/10/07 07:00:19;;;;;;;25.90;11.70;;;9.90;99.90;;;;;;5111359;28;20560;-48
2022/10/07 07:02:46;;;;;;;17.73;10.60;;;10.00;99.90;;;;;;5101025;28;20455;-49
2022/10/07 07:05:16;;;;;;;20.50;9.50;;;10.00;99.90;;;;;;5109486;28;20456;-48
2022/10/07 07:07:44;;;;;;;14.43;7.93;;;10.00;99.90;;;;;;5114311;28;20568;-41
2022/10/07 07:10:11;;;;;;;35.07;18.30;;;10.00;99.90;;;;;;5136540;28;20442;-46
2022/10/07 07:12:39;;;;;;;58.43;31.67;;;10.10;99.90;;;;;;5133429;27;20500;-42
2022/10/07 07:15:07;;;;;;;49.30;26.93;;;10.10;99.90;;;;;;5139493;27;20413;-44
2022/10/07 07:17:34;;;;;;;29.37;17.50;;;10.30;99.90;;;;;;5125576;28;20447;-49
2022/10/07 07:20:01;;;;;;;19.80;11.40;;;10.40;99.90;;;;;;5136377;27;20484;-47
2022/10/07 07:22:28;;;;;;;26.33;16.73;;;10.40;99.90;;;;;;5121445;27;20798;-47
2022/10/07 07:24:54;;;;;;;17.77;11.27;;;10.60;99.90;;;;;;5129163;27;20495;-42
2022/10/07 07:27:21;;;;;;;11.23;8.17;;;10.80;99.90;;;;;;5139232;28;20428;-48
2022/10/07 07:29:50;;;;;;;9.17;6.07;;;10.80;99.90;;;;;;5131003;28;20975;-49
2022/10/07 07:32:17;;;;;;;5.27;4.60;;;10.90;99.90;;;;;;5124411;28;20436;-52
2022/10/07 07:34:44;;;;;;;7.93;5.30;;;10.90;99.90;;;;;;5113493;28;20441;-48
2022/10/07 07:37:11;;;;;;;9.90;5.63;;;11.00;99.90;;;;;;5113339;28;20514;-48
2022/10/07 07:39:38;;;;;;;9.17;6.63;;;11.10;99.90;;;;;;5107582;28;20469;-51
2022/10/07 07:42:05;;;;;;;9.27;5.63;;;11.20;99.90;;;;;;5123354;28;20882;-45
2022/10/07 07:44:35;;;;;;;9.87;5.60;;;11.20;99.90;;;;;;5102240;28;20441;-46
2022/10/07 07:47:03;;;;;;;11.53;6.30;;;11.30;99.90;;;;;;5106649;28;20492;-46
2022/10/07 07:49:32;;;;;;;8.00;5.20;;;11.40;99.90;;;;;;5107652;28;20464;-48
2022/10/07 07:52:00;;;;;;;9.50;5.10;;;11.50;99.90;;;;;;5111107;28;20453;-49
2022/10/07 07:54:27;;;;;;;5.83;4.23;;;11.60;99.90;;;;;;5111693;28;20791;-49
2022/10/07 07:56:54;;;;;;;8.23;4.70;;;11.70;99.90;;;;;;5113603;28;20494;-47
2022/10/07 07:59:22;;;;;;;9.23;5.13;;;11.80;99.90;;;;;;5118141;28;20480;-52
2022/10/07 08:01:49;;;;;;;12.97;4.90;;;12.00;99.90;;;;;;5103973;28;20449;-54
2022/10/07 08:04:18;;;;;;;8.73;4.57;;;12.00;99.90;;;;;;5114678;28;20437;-49
2022/10/07 08:06:44;;;;;;;7.27;4.30;;;12.20;99.90;;;;;;5103886;28;20851;-45
2022/10/07 08:09:11;;;;;;;5.53;4.20;;;12.30;99.90;;;;;;5112759;28;20445;-52
2022/10/07 08:11:40;;;;;;;9.10;2.90;;;12.40;99.90;;;;;;5104289;28;20465;-48
2022/10/07 08:14:07;;;;;;;4.83;3.07;;;12.50;99.90;;;;;;5115591;28;20448;-48
2022/10/07 08:16:35;;;;;;;4.57;2.73;;;12.60;99.90;;;;;;5105971;28;20529;-47
2022/10/07 08:19:03;;;;;;;4.93;3.63;;;12.80;99.90;;;;;;5114872;28;20541;-53
2022/10/07 08:21:32;;;;;;;8.83;4.10;;;12.80;99.90;;;;;;5105909;28;20912;-53
2022/10/07 08:24:01;;;;;;;4.57;3.07;;;13.00;99.90;;;;;;5101974;28;20441;-48
2022/10/07 08:26:29;;;;;;;5.63;2.90;;;13.10;99.90;;;;;;5132001;27;20449;-50
2022/10/07 08:28:57;;;;;;;2.87;2.50;;;13.30;99.90;;;;;;5119337;28;20480;-49
2022/10/07 08:31:26;;;;;;;5.97;2.83;;;13.40;99.90;;;;;;5104868;28;20870;-50
2022/10/07 08:33:54;;;;;;;5.57;2.90;;;13.50;99.90;;;;;;5099661;28;20472;-49
2022/10/07 08:36:23;;;;;;;4.93;2.73;;;14.00;99.90;;;;;;5113961;28;20483;-52
2022/10/07 08:38:51;;;;;;;5.17;2.83;;;15.20;99.90;;;;;;5107454;28;20432;-47
2022/10/07 08:41:32;;;;;;;5.10;2.47;;;16.90;99.90;;;;;;5104398;28;20840;-48
2022/10/07 08:44:06;;;;;;;3.63;2.60;;;18.90;99.90;;;;;;5114302;28;20433;-48
2022/10/07 08:46:35;;;;;;;6.33;2.50;;;20.40;99.90;;;;;;5104161;28;20487;-53
2022/10/07 08:49:12;;;;;;;4.37;2.47;;;21.80;99.90;;;;;;5116994;28;20502;-47
2022/10/07 08:51:44;;;;;;;4.30;2.50;;;23.40;93.40;;;;;;5100237;28;20465;-48
2022/10/07 08:54:15;;;;;;;8.80;2.60;;;24.80;82.50;;;;;;5101837;28;20581;-49
2022/10/07 08:56:43;;;;;;;6.53;3.07;;;25.60;76.10;;;;;;5114867;28;20488;-45
2022/10/07 08:59:17;;;;;;;3.50;2.53;;;26.30;70.60;;;;;;5109438;28;20476;-52
2022/10/07 09:01:58;;;;;;;3.57;2.87;;;26.70;65.50;;;;;;5101534;28;20437;-44
2022/10/07 09:04:40;;;;;;;2.80;2.20;;;27.00;62.10;;;;;;5111635;28;20936;-47
2022/10/07 09:07:12;;;;;;;3.53;2.90;;;27.40;59.60;;;;;;5096796;28;20447;-49
2022/10/07 09:09:44;;;;;;;5.30;3.00;;;26.80;59.30;;;;;;5099455;28;20519;-49
2022/10/07 09:12:16;;;;;;;5.03;2.70;;;25.40;61.30;;;;;;5102875;28;20449;-49
2022/10/07 09:14:47;;;;;;;4.33;2.97;;;24.00;65.10;;;;;;5112209;28;20953;-54
2022/10/07 09:17:19;;;;;;;5.00;2.90;;;22.80;71.50;;;;;;5106648;28;20434;-52
2022/10/07 09:19:55;;;;;;;3.20;2.57;;;21.90;72.00;;;;;;5099534;28;21185;-50
2022/10/07 09:22:30;;;;;;;5.40;3.13;;;21.20;76.10;;;;;;5113634;27;20440;-49
2022/10/07 09:25:13;;;;;;;3.50;3.20;;;20.60;80.00;;;;;;5109288;28;20441;-48
2022/10/07 09:27:39;;;;;;;2.70;2.20;;;20.90;81.40;;;;;;5117894;28;20464;-51
2022/10/07 09:30:07;;;;;;;2.73;2.27;;;21.60;81.40;;;;;;5099889;28;20429;-49
2022/10/07 09:32:39;;;;;;;9.00;3.80;;;22.10;80.80;;;;;;5115562;28;20460;-48
2022/10/07 09:35:06;;;;;;;5.97;3.60;;;22.80;78.60;;;;;;5100639;28;20452;-52
2022/10/07 09:37:36;;;;;;;8.33;3.73;;;24.00;75.90;;;;;;5111511;27;20434;-30
2022/10/07 09:40:21;;;;;;;6.27;3.00;;;24.90;72.10;;;;;;5125263;27;20488;-50
2022/10/07 09:42:49;;;;;;;5.17;2.83;;;25.90;68.70;;;;;;5115384;27;20904;-49
2022/10/07 09:45:23;;;;;;;8.20;2.93;;;26.70;65.30;;;;;;5113628;28;20907;-32
2022/10/07 09:47:52;;;;;;;2.30;1.90;;;27.20;61.50;;;;;;5119902;27;20456;-51
2022/10/07 09:50:37;;;;;;;3.40;2.67;;;27.40;59.30;;;;;;5127098;27;20444;-34
2022/10/07 09:53:05;;;;;;;8.90;2.67;;;27.30;58.50;;;;;;5118746;27;20420;-30
2022/10/07 09:55:39;;;;;;;4.60;2.37;;;27.30;58.20;;;;;;5115933;27;20468;-56
2022/10/07 09:58:16;;;;;;;6.50;2.07;;;27.00;58.30;;;;;;5133592;27;20429;-54
2022/10/07 10:00:45;;;;;;;3.20;2.10;;;26.90;58.40;;;;;;5108285;28;20490;-54
2022/10/07 10:03:12;;;;;;;4.23;2.13;;;26.80;58.20;;;;;;5105252;28;20771;-48
2022/10/07 10:05:42;;;;;;;4.70;2.33;;;26.90;58.10;;;;;;5107980;28;20453;-53
2022/10/07 10:08:22;;;;;;;5.17;2.97;;;26.80;57.90;;;;;;5138398;27;20519;-33
2022/10/07 10:10:53;;;;;;;3.10;2.17;;;26.90;58.00;;;;;;5100590;28;20441;-51
2022/10/07 10:13:27;;;;;;;3.43;2.33;;;26.90;57.90;;;;;;5118123;27;20425;-30
2022/10/07 10:15:54;;;;;;;5.13;3.00;;;27.00;57.90;;;;;;5127472;27;20425;-50
2022/10/07 10:18:33;;;;;;;4.83;2.50;;;27.10;57.90;;;;;;5107898;28;20436;-52
2022/10/07 10:21:21;;;;;;;4.20;1.93;;;27.30;56.30;;;;;;5099570;28;20469;-54
2022/10/07 10:23:49;;;;;;;4.90;2.60;;;27.20;55.50;;;;;;5103452;28;20453;-56
2022/10/07 10:26:29;;;;;;;2.73;2.03;;;27.00;55.20;;;;;;5100669;28;20476;-52
2022/10/07 10:29:05;;;;;;;4.30;2.10;;;26.80;55.90;;;;;;5097809;28;20824;-56
2022/10/07 10:31:43;;;;;;;4.77;1.77;;;26.70;55.60;;;;;;5109836;28;20462;-53
2022/10/07 10:34:23;;;;;;;2.47;1.90;;;26.60;55.70;;;;;;5102896;28;20433;-51
2022/10/07 10:37:00;;;;;;;3.70;2.33;;;26.40;56.00;;;;;;5118250;28;20816;-53
2022/10/07 10:39:39;;;;;;;4.50;1.97;;;26.30;56.10;;;;;;5102136;28;20933;-52
2022/10/07 10:42:12;;;;;;;2.70;2.03;;;25.90;56.80;;;;;;5102845;28;20432;-51
2022/10/07 10:45:01;;;;;;;3.60;2.37;;;25.60;57.40;;;;;;5108882;28;20437;-52
2022/10/07 10:47:35;;;;;;;6.70;2.00;;;25.40;57.60;;;;;;5097927;28;20460;-59
2022/10/07 10:50:13;;;;;;;6.90;2.27;;;25.10;58.70;;;;;;5098627;28;20879;-54
2022/10/07 10:52:52;;;;;;;2.50;2.17;;;25.00;58.40;;;;;;5098799;28;20802;-56
2022/10/07 10:55:59;;;;;;;3.90;2.00;;;24.60;59.60;;;;;;5098009;28;20417;-52
2022/10/07 10:58:36;;;;;;;5.23;2.50;;;24.30;60.20;;;;;;5104991;28;20451;-55
2022/10/07 11:01:15;;;;;;;4.20;1.73;;;24.10;60.00;;;;;;5106218;28;20555;-52
2022/10/07 11:04:00;;;;;;;4.30;2.50;;;23.90;61.20;;;;;;5098396;28;20464;-55
2022/10/07 11:06:29;;;;;;;2.97;1.73;;;23.60;60.80;;;;;;5105830;28;20447;-51
2022/10/07 11:08:58;;;;;;;3.70;2.57;;;23.40;62.20;;;;;;5118481;28;20479;-51
2022/10/07 11:11:26;;;;;;;4.03;1.80;;;23.10;62.30;;;;;;5103441;28;20426;-50
2022/10/07 11:13:58;;;;;;;8.40;2.17;;;22.70;62.90;;;;;;5100055;28;20516;-54
2022/10/07 11:16:30;;;;;;;3.17;2.13;;;22.00;63.10;;;;;;5100594;28;20471;-48
2022/10/07 11:19:01;;;;;;;3.13;2.30;;;22.20;65.10;;;;;;5102628;28;20430;-50
2022/10/07 11:21:34;;;;;;;2.40;2.07;;;21.90;66.80;;;;;;5103162;28;20481;-48
2022/10/07 11:24:06;;;;;;;5.43;1.60;;;21.70;68.30;;;;;;5103877;28;20437;-49
2022/10/07 11:26:38;;;;;;;3.10;1.80;;;21.50;68.60;;;;;;5104468;28;20425;-54
2022/10/07 11:29:18;;;;;;;3.47;2.07;;;21.20;66.40;;;;;;5106220;28;20473;-50
2022/10/07 11:31:50;;;;;;;2.90;1.60;;;20.90;66.70;;;;;;5107858;28;20426;-51
2022/10/07 11:34:20;;;;;;;3.03;2.10;;;20.80;67.70;;;;;;5109130;28;20442;-55
2022/10/07 11:36:56;;;;;;;2.80;1.97;;;20.60;68.80;;;;;;5110958;28;20425;-52
2022/10/07 11:39:23;;;;;;;3.73;1.70;;;20.40;68.80;;;;;;5111638;28;20436;-55
2022/10/07 11:41:59;;;;;;;2.20;1.57;;;20.40;69.70;;;;;;5111213;28;20496;-49
2022/10/07 11:44:32;;;;;;;2.20;1.83;;;20.20;68.70;;;;;;5111148;28;20430;-53
2022/10/07 11:47:03;;;;;;;3.97;1.50;;;20.10;70.50;;;;;;5111496;28;20469;-52
2022/10/07 11:49:33;;;;;;;5.63;1.60;;;20.00;70.60;;;;;;5111847;28;20483;-48
2022/10/07 11:52:03;;;;;;;3.20;1.90;;;20.00;71.50;;;;;;5111689;28;20432;-46
2022/10/07 11:54:39;;;;;;;3.10;1.80;;;19.90;72.70;;;;;;5129592;28;20524;-50
2022/10/07 11:57:06;;;;;;;3.83;1.60;;;19.90;73.50;;;;;;5132236;28;20436;-50
2022/10/07 11:59:43;;;;;;;2.30;1.73;;;19.80;73.60;;;;;;5131782;28;20470;-48
2022/10/07 12:02:38;;;;;;;3.77;1.73;;;19.70;73.00;;;;;;5132059;28;20465;-46
2022/10/07 12:05:06;;;;;;;3.23;1.70;;;19.60;72.60;;;;;;5132708;28;20420;-47
2022/10/07 12:07:40;;;;;;;1.63;1.30;;;19.60;72.90;;;;;;5133310;28;20440;-51
2022/10/07 12:10:28;;;;;;;3.50;1.90;;;19.50;75.10;;;;;;5132579;28;20433;-50
2022/10/07 12:12:58;;;;;;;3.40;1.90;;;19.60;76.50;;;;;;5132645;28;20516;-49
2022/10/07 12:15:32;;;;;;;6.03;1.70;;;19.60;76.70;;;;;;5132625;28;20440;-45
2022/10/07 12:18:28;;;;;;;3.07;1.40;;;19.70;76.20;;;;;;5132187;28;20453;-50
2022/10/07 12:21:06;;;;;;;6.60;2.10;;;19.60;76.60;;;;;;5132395;28;20469;-50
2022/10/07 12:23:41;;;;;;;2.50;1.33;;;19.70;76.40;;;;;;5132950;28;20588;-49
2022/10/07 12:26:50;;;;;;;2.07;1.70;;;19.70;74.40;;;;;;5132744;28;20555;-49
2022/10/07 12:29:42;;;;;;;1.50;1.20;;;19.70;73.90;;;;;;5132800;28;20425;-47
2022/10/07 12:32:44;;;;;;;5.43;1.90;;;19.70;73.70;;;;;;5132608;28;20463;-48
2022/10/07 12:35:39;;;;;;;2.23;1.90;;;19.70;74.00;;;;;;5132932;28;20432;-50
2022/10/07 12:38:14;;;;;;;2.33;1.70;;;19.70;72.50;;;;;;5132337;28;20460;-45
2022/10/07 12:40:42;;;;;;;1.73;1.63;;;19.70;72.10;;;;;;5132487;28;20491;-51
2022/10/07 12:43:24;;;;;;;2.40;1.67;;;19.80;73.70;;;;;;5132565;28;20450;-52
2022/10/07 12:45:52;;;;;;;2.93;1.47;;;19.80;74.70;;;;;;5117663;28;20812;-50
2022/10/07 12:48:24;;;;;;;8.93;1.50;;;19.80;73.10;;;;;;5111677;28;20439;-52
2022/10/07 12:50:55;;;;;;;3.40;1.73;;;19.80;73.60;;;;;;5110908;28;20469;-53
2022/10/07 12:53:25;;;;;;;4.30;2.47;;;19.90;75.00;;;;;;5110667;28;20430;-49
2022/10/07 12:55:55;;;;;;;4.23;1.80;;;20.00;74.30;;;;;;5110399;28;20458;-49
2022/10/07 13:01:39;;;;;;;4.10;2.13;;;20.00;75.80;;;;;;5110495;28;20468;-47
2022/10/07 13:04:26;;;;;;;5.17;2.23;;;20.00;76.70;;;;;;5110515;28;20485;-53
2022/10/07 13:07:31;;;;;;;3.67;1.67;;;20.10;77.10;;;;;;5110452;28;20421;-53
2022/10/07 13:10:30;;;;;;;3.10;1.50;;;20.10;76.60;;;;;;5110065;28;20493;-51
2022/10/07 13:13:03;;;;;;;3.67;1.57;;;20.10;77.00;;;;;;5110243;28;20426;-49
2022/10/07 13:15:40;;;;;;;9.00;1.40;;;20.20;76.50;;;;;;5109764;28;20426;-52